createdAt,value
2023-01-18T00:00:40.096Z,95643.13
2023-01-18T00:03:09.257Z,95649.66
2023-01-18T00:05:35.930Z,95635.66
2023-01-18T00:08:02.678Z,95653.59
2023-01-18T00:10:29.298Z,95647.53
2023-01-18T00:12:56.528Z,95646.66
2023-01-18T00:15:23.362Z,95636.91
2023-01-18T00:17:50.421Z,95646.72
2023-01-18T00:20:19.817Z,95647.53
2023-01-18T00:22:46.453Z,95652.59
2023-01-18T00:25:13.310Z,95628.06
2023-01-18T00:27:44.439Z,95647.84
2023-01-18T00:30:11.833Z,95597.59
2023-01-18T00:32:38.563Z,95624.44
2023-01-18T00:35:05.697Z,95648.22
2023-01-18T00:37:32.291Z,95640.91
2023-01-18T00:39:59.216Z,95645.72
2023-01-18T00:42:25.846Z,95636.09
2023-01-18T00:44:52.584Z,95634.41
2023-01-18T00:47:19.213Z,95641.72
2023-01-18T00:49:45.924Z,95640.84
2023-01-18T00:52:12.529Z,95640.22
2023-01-18T00:54:39.240Z,95645.47
2023-01-18T00:57:05.819Z,95648.41
2023-01-18T00:59:32.458Z,95643.44
2023-01-18T01:01:59.292Z,95644.91
2023-01-18T01:04:26.105Z,95631.91
2023-01-18T01:06:52.702Z,95652.88
2023-01-18T01:09:26.643Z,95655.28
2023-01-18T01:11:54.179Z,95660.00
2023-01-18T01:14:20.760Z,95657.78
2023-01-18T01:16:47.617Z,95656.06
2023-01-18T01:19:14.211Z,95660.28
2023-01-18T01:21:41.275Z,95637.00
2023-01-18T01:24:07.931Z,95643.16
2023-01-18T01:26:35.161Z,95660.63
2023-01-18T01:29:01.758Z,95661.25
2023-01-18T01:31:28.448Z,95671.44
2023-01-18T01:33:55.015Z,95669.66
2023-01-18T01:36:23.376Z,95671.66
2023-01-18T01:38:50.584Z,95670.88
2023-01-18T01:41:22.836Z,95666.50
2023-01-18T01:44:15.136Z,95661.31
2023-01-18T01:46:50.863Z,95660.50
2023-01-18T01:49:25.494Z,95673.13
2023-01-18T01:52:14.388Z,95668.19
2023-01-18T01:54:45.882Z,95666.56
2023-01-18T01:57:18.757Z,95680.69
2023-01-18T01:59:53.629Z,95673.00
2023-01-18T02:02:20.550Z,95665.34
2023-01-18T02:04:47.444Z,95690.13
2023-01-18T02:07:14.277Z,95685.22
2023-01-18T02:09:41.522Z,95692.28
2023-01-18T02:12:08.204Z,95682.22
2023-01-18T02:14:35.298Z,95696.84
2023-01-18T02:17:13.816Z,95693.53
2023-01-18T02:19:58.624Z,95699.69
2023-01-18T02:22:53.101Z,95696.13
2023-01-18T02:25:47.763Z,95704.34
2023-01-18T02:28:16.726Z,95695.16
2023-01-18T02:31:13.674Z,95702.78
2023-01-18T02:33:51.713Z,95652.34
2023-01-18T02:36:38.592Z,95700.13
2023-01-18T02:39:26.941Z,95693.97
2023-01-18T02:42:03.559Z,95704.31
2023-01-18T02:44:37.895Z,95708.84
2023-01-18T02:47:06.909Z,95701.38
2023-01-18T02:49:33.529Z,95697.25
2023-01-18T02:52:01.814Z,95700.66
2023-01-18T02:54:30.760Z,95712.41
2023-01-18T02:57:03.141Z,95704.13
2023-01-18T02:59:33.443Z,95706.69
2023-01-18T03:02:06.848Z,95703.13
2023-01-18T03:04:40.569Z,95708.31
2023-01-18T03:07:19.291Z,95710.63
2023-01-18T03:09:46.263Z,95721.44
2023-01-18T03:12:17.107Z,95713.50
2023-01-18T03:14:58.016Z,95718.66
2023-01-18T03:17:51.469Z,95714.53
2023-01-18T03:20:25.520Z,95714.75
2023-01-18T03:23:17.567Z,95707.94
2023-01-18T03:25:50.414Z,95707.59
2023-01-18T03:28:25.759Z,95715.59
2023-01-18T03:30:56.807Z,95715.81
2023-01-18T03:33:27.360Z,95724.91
2023-01-18T03:35:55.271Z,95704.28
2023-01-18T03:38:22.456Z,95721.41
2023-01-18T03:40:49.286Z,95714.88
2023-01-18T03:43:18.610Z,95715.94
2023-01-18T03:45:48.441Z,95718.59
2023-01-18T03:48:15.766Z,95718.44
2023-01-18T03:51:29.458Z,95717.06
2023-01-18T03:54:03.243Z,95714.81
2023-01-18T03:56:42.342Z,95716.63
2023-01-18T03:59:09.163Z,95715.31
2023-01-18T04:01:36.547Z,95715.84
2023-01-18T04:04:03.355Z,95717.84
2023-01-18T04:06:32.899Z,95711.91
2023-01-18T04:08:59.597Z,95706.28
2023-01-18T04:11:26.228Z,95709.91
2023-01-18T04:13:54.488Z,95716.03
2023-01-18T04:16:21.554Z,95724.84
2023-01-18T04:18:48.768Z,95725.28
2023-01-18T04:21:15.423Z,95703.88
2023-01-18T04:23:42.126Z,95719.06
2023-01-18T04:26:08.766Z,95730.03
2023-01-18T04:28:35.378Z,95718.78
2023-01-18T04:31:02.136Z,95711.25
2023-01-18T04:33:29.072Z,95735.50
2023-01-18T04:35:55.749Z,95730.47
2023-01-18T04:38:23.221Z,95734.53
2023-01-18T04:40:49.895Z,95752.66
2023-01-18T04:43:17.089Z,95742.69
2023-01-18T04:45:43.724Z,95745.13
2023-01-18T04:48:10.543Z,95749.78
2023-01-18T04:50:38.935Z,95754.41
2023-01-18T04:53:05.674Z,95737.63
2023-01-18T04:55:32.307Z,95759.28
2023-01-18T04:57:58.971Z,95761.34
2023-01-18T05:00:25.581Z,95745.47
2023-01-18T05:02:52.459Z,95750.81
2023-01-18T05:05:19.057Z,95768.81
2023-01-18T05:07:45.801Z,95770.16
2023-01-18T05:10:12.784Z,95769.63
2023-01-18T05:12:39.694Z,95774.44
2023-01-18T05:15:07.036Z,95771.34
2023-01-18T05:17:34.020Z,95785.88
2023-01-18T05:20:04.313Z,95767.69
2023-01-18T05:22:31.062Z,95790.41
2023-01-18T05:24:57.660Z,95792.72
2023-01-18T05:27:24.644Z,95789.44
2023-01-18T05:29:51.621Z,95785.78
2023-01-18T05:32:18.562Z,95789.63
2023-01-18T05:34:48.197Z,95802.75
2023-01-18T05:37:15.357Z,95806.13
2023-01-18T05:39:42.093Z,95804.25
2023-01-18T05:42:08.881Z,95789.00
2023-01-18T05:44:35.536Z,95805.59
2023-01-18T05:47:02.396Z,95817.63
2023-01-18T05:49:29.730Z,95817.41
2023-01-18T05:51:56.460Z,95823.97
2023-01-18T05:54:23.604Z,95811.41
2023-01-18T05:56:50.508Z,95825.41
2023-01-18T05:59:17.191Z,95831.38
2023-01-18T06:01:43.926Z,95834.84
2023-01-18T06:04:10.558Z,95824.88
2023-01-18T06:06:37.251Z,95843.75
2023-01-18T06:09:04.059Z,95846.00
2023-01-18T06:11:30.942Z,95791.66
2023-01-18T06:13:57.535Z,95846.19
2023-01-18T06:16:24.406Z,95856.97
2023-01-18T06:18:51.121Z,95854.13
2023-01-18T06:21:17.866Z,95856.69
2023-01-18T06:23:45.544Z,95859.72
2023-01-18T06:26:12.338Z,95863.53
2023-01-18T06:28:38.917Z,95865.59
2023-01-18T06:31:05.707Z,95860.59
2023-01-18T06:33:32.424Z,95872.91
2023-01-18T06:35:59.101Z,95866.19
2023-01-18T06:38:25.897Z,95874.53
2023-01-18T06:40:52.589Z,95878.34
2023-01-18T06:43:19.192Z,95870.94
2023-01-18T06:45:52.571Z,95881.56
2023-01-18T06:48:19.319Z,95877.00
2023-01-18T06:50:45.931Z,95882.19
2023-01-18T06:53:12.615Z,95871.56
2023-01-18T06:55:39.236Z,95883.53
2023-01-18T06:58:06.004Z,95882.38
2023-01-18T07:00:34.485Z,95875.47
2023-01-18T07:03:01.277Z,95893.25
2023-01-18T07:05:27.919Z,95899.97
2023-01-18T07:07:54.894Z,95898.53
2023-01-18T07:10:21.532Z,95900.69
2023-01-18T07:12:48.208Z,95915.31
2023-01-18T07:15:21.599Z,95874.88
2023-01-18T07:17:49.646Z,95897.41
2023-01-18T07:20:16.688Z,95913.38
2023-01-18T07:22:43.341Z,95923.63
2023-01-18T07:25:09.961Z,95923.28
2023-01-18T07:27:36.656Z,95931.06
2023-01-18T07:30:03.436Z,95929.19
2023-01-18T07:32:30.119Z,95940.69
2023-01-18T07:34:58.602Z,95952.03
2023-01-18T07:37:26.168Z,95949.25
2023-01-18T07:39:52.715Z,95949.34
2023-01-18T07:42:19.470Z,95959.00
2023-01-18T07:44:46.070Z,95940.88
2023-01-18T07:47:12.732Z,95922.31
2023-01-18T07:49:39.557Z,95912.94
2023-01-18T07:52:06.252Z,95955.06
2023-01-18T07:54:32.829Z,95956.38
2023-01-18T07:56:59.561Z,95962.69
2023-01-18T07:59:26.536Z,95961.47
2023-01-18T08:01:53.306Z,95939.59
2023-01-18T08:04:20.320Z,95967.38
2023-01-18T08:06:47.015Z,95977.06
2023-01-18T08:09:13.604Z,95975.09
2023-01-18T08:11:40.338Z,95941.84
2023-01-18T08:14:06.993Z,95989.22
2023-01-18T08:16:33.747Z,95991.25
2023-01-18T08:19:00.373Z,95997.72
2023-01-18T08:21:27.064Z,96006.72
2023-01-18T08:23:53.727Z,96006.19
2023-01-18T08:26:20.579Z,96009.78
2023-01-18T08:28:47.161Z,96004.47
2023-01-18T08:31:22.023Z,95962.19
2023-01-18T08:33:49.115Z,96011.09
2023-01-18T08:36:19.391Z,96018.31
2023-01-18T08:38:51.226Z,96015.03
2023-01-18T08:41:18.742Z,96007.28
2023-01-18T08:43:49.117Z,96034.59
2023-01-18T08:46:15.862Z,96034.56
2023-01-18T08:48:42.638Z,96035.97
2023-01-18T08:51:10.112Z,95988.56
2023-01-18T08:53:36.779Z,96043.03
2023-01-18T08:56:05.674Z,96027.03
2023-01-18T08:58:32.849Z,95996.03
2023-01-18T09:00:59.682Z,96052.34
2023-01-18T09:03:26.348Z,96030.19
2023-01-18T09:05:53.177Z,96052.47
2023-01-18T09:08:20.111Z,96064.84
2023-01-18T09:10:46.798Z,96072.00
2023-01-18T09:13:13.434Z,96059.69
2023-01-18T09:15:40.183Z,96081.13
2023-01-18T09:18:06.878Z,96083.28
2023-01-18T09:20:35.583Z,96088.28
2023-01-18T09:23:09.771Z,96056.09
2023-01-18T09:25:37.379Z,96104.03
2023-01-18T09:28:04.936Z,96102.41
2023-01-18T09:30:32.988Z,96101.53
2023-01-18T09:33:00.028Z,96096.59
2023-01-18T09:35:27.019Z,96091.31
2023-01-18T09:37:54.982Z,96112.31
2023-01-18T09:40:24.814Z,96120.97
2023-01-18T09:42:52.620Z,96112.44
2023-01-18T09:45:34.196Z,96104.41
2023-01-18T09:48:12.583Z,96128.13
2023-01-18T09:50:42.179Z,96112.13
2023-01-18T09:53:59.914Z,96124.16
2023-01-18T09:56:53.433Z,96128.59
2023-01-18T09:59:30.426Z,96139.63
2023-01-18T10:01:57.655Z,96140.00
2023-01-18T10:04:31.931Z,96143.63
2023-01-18T10:07:01.566Z,96155.88
2023-01-18T10:09:42.045Z,96154.09
2023-01-18T10:12:16.510Z,96147.75
2023-01-18T10:14:53.093Z,96149.41
2023-01-18T10:17:29.929Z,96137.53
2023-01-18T10:19:56.614Z,96153.38
2023-01-18T10:23:18.497Z,96165.13
2023-01-18T10:25:57.313Z,96165.56
2023-01-18T10:28:42.740Z,96163.59
2023-01-18T10:31:20.713Z,96157.06
2023-01-18T10:33:51.391Z,96162.72
2023-01-18T10:36:23.304Z,96163.88
2023-01-18T10:38:53.866Z,96168.72
2023-01-18T10:41:26.834Z,96165.22
2023-01-18T10:43:54.274Z,96171.56
2023-01-18T10:46:21.478Z,96167.00
2023-01-18T10:48:53.875Z,96165.47
2023-01-18T10:51:32.819Z,96169.53
2023-01-18T10:53:59.526Z,96147.13
2023-01-18T10:56:28.459Z,96179.72
2023-01-18T10:58:59.813Z,96026.03
2023-01-18T11:01:34.787Z,96174.75
2023-01-18T11:04:16.615Z,96172.56
2023-01-18T11:06:59.059Z,96172.03
2023-01-18T11:09:34.600Z,96175.59
2023-01-18T11:12:19.987Z,96165.75
2023-01-18T11:14:47.543Z,96182.06
2023-01-18T11:17:14.281Z,96183.84
2023-01-18T11:19:40.944Z,96191.53
2023-01-18T11:22:16.940Z,96143.75
2023-01-18T11:24:43.756Z,96198.59
2023-01-18T11:27:16.646Z,96191.69
2023-01-18T11:29:45.688Z,96193.00
2023-01-18T11:32:24.645Z,96172.16
2023-01-18T11:34:54.304Z,96193.03
2023-01-18T11:37:46.985Z,96192.84
2023-01-18T11:40:25.182Z,96199.31
2023-01-18T11:42:53.860Z,96199.66
2023-01-18T11:45:26.536Z,96204.94
2023-01-18T11:48:03.764Z,96206.75
2023-01-18T11:50:53.894Z,96211.31
2023-01-18T11:53:26.689Z,96208.72
2023-01-18T11:55:58.160Z,96209.81
2023-01-18T11:58:32.053Z,96213.72
2023-01-18T12:01:01.908Z,96219.56
2023-01-18T12:03:49.158Z,96220.69
2023-01-18T12:06:33.122Z,96219.94
2023-01-18T12:09:17.886Z,96221.84
2023-01-18T12:11:45.739Z,96229.13
2023-01-18T12:14:29.606Z,96227.34
2023-01-18T12:17:56.473Z,96228.69
2023-01-18T12:20:56.053Z,96217.94
2023-01-18T12:23:56.520Z,96239.09
2023-01-18T12:26:45.885Z,96236.28
2023-01-18T12:29:34.453Z,96245.78
2023-01-18T12:32:38.857Z,96241.56
2023-01-18T12:35:25.295Z,96250.34
2023-01-18T12:38:16.616Z,96249.72
2023-01-18T12:40:52.117Z,96255.47
2023-01-18T12:43:47.855Z,96241.94
2023-01-18T12:46:20.352Z,96251.25
2023-01-18T12:48:53.343Z,96250.06
2023-01-18T12:51:23.923Z,96254.38
2023-01-18T12:53:56.484Z,96253.41
2023-01-18T12:56:37.967Z,96255.25
2023-01-18T12:59:15.983Z,96263.28
2023-01-18T13:01:48.102Z,96262.06
2023-01-18T13:04:22.421Z,96216.94
2023-01-18T13:06:55.213Z,96269.50
2023-01-18T13:09:26.567Z,96281.59
2023-01-18T13:11:53.787Z,96267.06
2023-01-18T13:14:28.076Z,96286.22
2023-01-18T13:17:08.147Z,96287.25
2023-01-18T13:19:50.522Z,96272.84
2023-01-18T13:22:26.170Z,96297.31
2023-01-18T13:25:17.502Z,96297.03
2023-01-18T13:28:04.884Z,96303.16
2023-01-18T13:30:34.112Z,96307.63
2023-01-18T13:33:12.157Z,96311.25
2023-01-18T13:36:02.900Z,96290.44
2023-01-18T13:38:41.024Z,96295.13
2023-01-18T13:41:11.632Z,96320.81
2023-01-18T13:43:38.242Z,96332.06
2023-01-18T13:46:08.175Z,96331.84
2023-01-18T13:48:59.142Z,96290.81
2023-01-18T13:51:41.001Z,96342.31
2023-01-18T13:54:09.808Z,96346.97
2023-01-18T13:56:37.879Z,96349.88
2023-01-18T13:59:32.864Z,96349.94
2023-01-18T14:02:07.311Z,96352.59
2023-01-18T14:04:35.321Z,96355.66
2023-01-18T14:07:03.942Z,96367.88
2023-01-18T14:09:43.506Z,96350.13
2023-01-18T14:12:11.697Z,96376.19
2023-01-18T14:14:55.319Z,96385.69
2023-01-18T14:17:25.210Z,96385.81
2023-01-18T14:20:21.776Z,96390.72
2023-01-18T14:23:17.024Z,96396.56
2023-01-18T14:26:15.940Z,96402.19
2023-01-18T14:28:47.921Z,96413.09
2023-01-18T14:31:23.406Z,96417.56
2023-01-18T14:33:50.169Z,96419.03
2023-01-18T14:36:29.375Z,96422.47
2023-01-18T14:39:08.414Z,96429.28
2023-01-18T14:41:36.101Z,96424.25
2023-01-18T14:44:02.792Z,96436.94
2023-01-18T14:46:29.755Z,96448.00
2023-01-18T14:48:58.906Z,96454.09
2023-01-18T14:51:28.364Z,96450.03
2023-01-18T14:53:59.835Z,96460.97
2023-01-18T14:56:30.221Z,96460.09
2023-01-18T14:59:02.462Z,96462.41
2023-01-18T15:01:40.095Z,96465.50
2023-01-18T15:04:22.057Z,96454.19
2023-01-18T15:06:56.752Z,96455.19
2023-01-18T15:09:27.882Z,96469.81
2023-01-18T15:12:02.429Z,96450.09
2023-01-18T15:14:35.503Z,96486.47
2023-01-18T15:17:08.452Z,96481.63
2023-01-18T15:19:41.235Z,96490.63
2023-01-18T15:22:12.163Z,96446.38
2023-01-18T15:24:41.146Z,96504.88
2023-01-18T15:27:17.338Z,96506.75
2023-01-18T15:29:50.641Z,96513.81
2023-01-18T15:32:26.177Z,96510.31
2023-01-18T15:34:54.982Z,96497.94
2023-01-18T15:37:30.108Z,96511.84
2023-01-18T15:39:56.817Z,96523.44
2023-01-18T15:42:43.702Z,96524.69
2023-01-18T15:45:17.859Z,96512.28
2023-01-18T15:47:50.775Z,96531.03
2023-01-18T15:50:23.372Z,96534.44
2023-01-18T15:52:57.645Z,96541.81
2023-01-18T15:55:33.568Z,96554.81
2023-01-18T15:58:06.889Z,96552.41
2023-01-18T16:00:39.348Z,96514.94
2023-01-18T16:03:16.908Z,96518.81
2023-01-18T16:05:43.715Z,96560.56
2023-01-18T16:08:22.022Z,96568.53
2023-01-18T16:10:58.456Z,96569.34
2023-01-18T16:13:31.294Z,96580.09
2023-01-18T16:16:08.552Z,96583.56
2023-01-18T16:18:35.450Z,96559.03
2023-01-18T16:21:12.221Z,96590.59
2023-01-18T16:23:44.713Z,96590.16
2023-01-18T16:26:13.237Z,96595.53
2023-01-18T16:28:39.931Z,96590.16
2023-01-18T16:31:06.880Z,96591.47
2023-01-18T16:33:33.569Z,96544.66
2023-01-18T16:36:00.247Z,96608.84
2023-01-18T16:38:26.981Z,96610.00
2023-01-18T16:40:53.712Z,96615.91
2023-01-18T16:43:27.030Z,96620.63
2023-01-18T16:45:56.234Z,96617.56
2023-01-18T16:48:25.310Z,96609.31
2023-01-18T16:50:53.909Z,96619.22
2023-01-18T16:53:20.534Z,96626.75
2023-01-18T16:55:47.463Z,96624.00
2023-01-18T16:58:15.594Z,96625.34
2023-01-18T17:01:07.165Z,96623.38
2023-01-18T17:03:33.991Z,96634.78
2023-01-18T17:06:00.614Z,96633.97
2023-01-18T17:08:27.467Z,96650.84
2023-01-18T17:10:54.093Z,96635.63
2023-01-18T17:13:21.211Z,96652.22
2023-01-18T17:15:48.586Z,96639.59
2023-01-18T17:18:16.965Z,96662.44
2023-01-18T17:20:44.231Z,96652.22
2023-01-18T17:23:11.032Z,96663.28
2023-01-18T17:25:37.813Z,96656.47
2023-01-18T17:28:05.088Z,96667.31
2023-01-18T17:30:32.080Z,96668.66
2023-01-18T17:32:59.214Z,96668.19
2023-01-18T17:35:26.357Z,96669.28
2023-01-18T17:38:00.663Z,96674.66
2023-01-18T17:40:40.021Z,96678.59
2023-01-18T17:43:22.152Z,96638.75
2023-01-18T17:46:01.258Z,96674.53
2023-01-18T17:48:28.614Z,96688.66
2023-01-18T17:50:55.232Z,96627.22
2023-01-18T17:53:21.994Z,96701.59
2023-01-18T17:55:48.642Z,96697.88
2023-01-18T17:58:15.355Z,96707.28
2023-01-18T18:00:41.948Z,96711.63
2023-01-18T18:03:09.440Z,96702.91
2023-01-18T18:05:36.261Z,96714.56
2023-01-18T18:08:03.224Z,96702.56
2023-01-18T18:10:30.290Z,96725.56
2023-01-18T18:12:57.131Z,96724.09
2023-01-18T18:15:23.763Z,96715.63
2023-01-18T18:17:50.888Z,96714.53
2023-01-18T18:20:17.627Z,96741.25
2023-01-18T18:22:44.385Z,96743.69
2023-01-18T18:25:11.034Z,96738.97
2023-01-18T18:27:45.387Z,96752.09
2023-01-18T18:30:13.307Z,96747.09
2023-01-18T18:32:40.011Z,96754.22
2023-01-18T18:35:14.843Z,96753.06
2023-01-18T18:37:50.403Z,96740.09
2023-01-18T18:40:17.329Z,96749.16
2023-01-18T18:42:49.894Z,96757.59
2023-01-18T18:45:27.671Z,96765.03
2023-01-18T18:47:54.342Z,96748.06
2023-01-18T18:50:22.484Z,96771.97
2023-01-18T18:52:49.255Z,96774.06
2023-01-18T18:55:16.187Z,96776.03
2023-01-18T18:57:42.914Z,96782.19
2023-01-18T19:00:10.440Z,96788.19
2023-01-18T19:02:37.181Z,96797.25
2023-01-18T19:05:05.028Z,96751.31
2023-01-18T19:07:34.186Z,96803.91
2023-01-18T19:10:00.844Z,96811.19
2023-01-18T19:12:27.794Z,96785.41
2023-01-18T19:14:54.513Z,96813.94
2023-01-18T19:17:29.752Z,96819.75
2023-01-18T19:20:00.425Z,96824.25
2023-01-18T19:22:27.104Z,96819.47
2023-01-18T19:24:53.879Z,96827.53
2023-01-18T19:27:20.913Z,96827.63
2023-01-18T19:29:47.553Z,96831.03
2023-01-18T19:32:14.136Z,96823.44
2023-01-18T19:34:41.172Z,96834.63
2023-01-18T19:37:07.839Z,96831.59
2023-01-18T19:39:34.829Z,96837.59
2023-01-18T19:42:02.462Z,96833.16
2023-01-18T19:44:29.468Z,96832.72
2023-01-18T19:46:56.218Z,96843.72
2023-01-18T19:49:23.116Z,96847.13
2023-01-18T19:51:49.705Z,96825.72
2023-01-18T19:54:16.344Z,96835.69
2023-01-18T19:56:43.194Z,96842.50
2023-01-18T19:59:09.939Z,96845.03
2023-01-18T20:01:37.386Z,96844.22
2023-01-18T20:04:07.807Z,96849.88
2023-01-18T20:06:35.195Z,96829.94
2023-01-18T20:09:04.024Z,96842.28
2023-01-18T20:11:32.606Z,96836.16
2023-01-18T20:13:59.284Z,96844.94
2023-01-18T20:16:25.888Z,96850.91
2023-01-18T20:18:52.660Z,96856.50
2023-01-18T20:21:19.395Z,96868.03
2023-01-18T20:23:46.638Z,96866.50
2023-01-18T20:26:17.975Z,96871.44
2023-01-18T20:28:48.702Z,96874.53
2023-01-18T20:31:15.468Z,96878.31
2023-01-18T20:33:42.159Z,96885.97
2023-01-18T20:36:08.942Z,96890.00
2023-01-18T20:38:36.199Z,96887.13
2023-01-18T20:41:02.842Z,96884.75
2023-01-18T20:43:30.316Z,96863.47
2023-01-18T20:46:05.175Z,96862.06
2023-01-18T20:48:33.364Z,96891.53
2023-01-18T20:51:00.998Z,96893.47
2023-01-18T20:53:30.579Z,96895.84
2023-01-18T20:56:08.291Z,96902.13
2023-01-18T20:58:38.630Z,96901.31
2023-01-18T21:01:07.280Z,96875.38
2023-01-18T21:03:34.183Z,96885.56
2023-01-18T21:06:00.840Z,96908.16
2023-01-18T21:08:27.613Z,96906.94
2023-01-18T21:10:54.198Z,96911.09
2023-01-18T21:13:20.979Z,96911.09
2023-01-18T21:15:54.625Z,96914.00
2023-01-18T21:18:22.150Z,96911.72
2023-01-18T21:20:53.447Z,96928.22
2023-01-18T21:23:20.383Z,96919.56
2023-01-18T21:25:50.608Z,96928.03
2023-01-18T21:28:17.265Z,96928.84
2023-01-18T21:30:43.845Z,96928.00
2023-01-18T21:33:13.707Z,96931.75
2023-01-18T21:35:40.368Z,96913.41
2023-01-18T21:38:07.050Z,96938.44
2023-01-18T21:40:33.885Z,96936.66
2023-01-18T21:43:00.582Z,96946.66
2023-01-18T21:45:27.188Z,96940.97
2023-01-18T21:47:53.903Z,96937.38
2023-01-18T21:50:20.497Z,96933.91
2023-01-18T21:52:48.716Z,96939.41
2023-01-18T21:55:16.578Z,96932.78
2023-01-18T21:57:43.540Z,96941.06
2023-01-18T22:00:11.443Z,96913.63
2023-01-18T22:02:38.266Z,96911.75
2023-01-18T22:05:05.640Z,96925.72
2023-01-18T22:07:33.855Z,96943.28
2023-01-18T22:10:06.520Z,96952.41
2023-01-18T22:12:35.869Z,96958.78
2023-01-18T22:15:04.545Z,96951.59
2023-01-18T22:17:31.442Z,96955.41
2023-01-18T22:19:58.117Z,96957.34
2023-01-18T22:22:24.954Z,96970.03
2023-01-18T22:24:51.599Z,96969.22
2023-01-18T22:27:18.339Z,96972.56
2023-01-18T22:29:45.036Z,96978.66
2023-01-18T22:32:11.743Z,96967.09
2023-01-18T22:34:38.341Z,96971.66
2023-01-18T22:37:05.013Z,96974.63
2023-01-18T22:39:31.610Z,96929.63
2023-01-18T22:41:58.337Z,96978.97
2023-01-18T22:44:24.985Z,96987.25
2023-01-18T22:46:51.787Z,96988.75
2023-01-18T22:49:18.391Z,96994.91
2023-01-18T22:51:45.166Z,96996.06
2023-01-18T22:54:11.858Z,96999.88
2023-01-18T22:56:38.631Z,97008.81
2023-01-18T22:59:05.492Z,97013.28
2023-01-18T23:01:32.988Z,97011.75
2023-01-18T23:04:03.364Z,97013.81
2023-01-18T23:06:31.747Z,97023.66
2023-01-18T23:08:58.857Z,97002.22
2023-01-18T23:11:27.246Z,97011.97
2023-01-18T23:13:56.982Z,97018.94
2023-01-18T23:16:23.646Z,97020.97
2023-01-18T23:18:50.234Z,97015.69
2023-01-18T23:21:17.004Z,97020.53
2023-01-18T23:23:43.642Z,97020.13
2023-01-18T23:26:10.416Z,97023.91
2023-01-18T23:28:37.212Z,97024.13
2023-01-18T23:31:04.023Z,97019.31
2023-01-18T23:33:30.705Z,97023.66
2023-01-18T23:35:57.371Z,97014.63
2023-01-18T23:38:23.958Z,97020.91
2023-01-18T23:40:50.657Z,97002.56
2023-01-18T23:43:17.319Z,97017.75
2023-01-18T23:45:44.056Z,97023.75
2023-01-18T23:48:17.357Z,97023.38
2023-01-18T23:50:44.064Z,97017.28
2023-01-18T23:53:13.693Z,97018.00
2023-01-18T23:55:40.347Z,97002.00
2023-01-18T23:58:07.044Z,97007.09
